sensor_id;sensor_type;location;lat;lon;timestamp;P1;durP1;ratioP1;P2;durP2;ratioP2
7215;SDS011;3649;48.798;9.798;2023-09-18T00:00:58;4.97;;;4.23;;
7215;SDS011;3649;48.798;9.798;2023-09-18T00:03:25;7.13;;;4.20;;
7215;SDS011;3649;48.798;9.798;2023-09-18T00:05:52;4.63;;;4.00;;
7215;SDS011;3649;48.798;9.798;2023-09-18T00:08:21;4.27;;;3.93;;
7215;SDS011;3649;48.798;9.798;2023-09-18T00:10:49;4.93;;;3.93;;
7215;SDS011;3649;48.798;9.798;2023-09-18T00:13:20;3.77;;;3.57;;
7215;SDS011;3649;48.798;9.798;2023-09-18T00:15:48;4.60;;;4.20;;
7215;SDS011;3649;48.798;9.798;2023-09-18T00:18:15;4.27;;;3.90;;
7215;SDS011;3649;48.798;9.798;2023-09-18T00:20:43;5.40;;;3.80;;
7215;SDS011;3649;48.798;9.798;2023-09-18T00:23:10;5.87;;;4.17;;
7215;SDS011;3649;48.798;9.798;2023-09-18T00:25:37;3.93;;;3.63;;
7215;SDS011;3649;48.798;9.798;2023-09-18T00:28:04;7.10;;;4.00;;
7215;SDS011;3649;48.798;9.798;2023-09-18T00:30:31;4.30;;;3.90;;
7215;SDS011;3649;48.798;9.798;2023-09-18T00:32:58;5.83;;;3.90;;
7215;SDS011;3649;48.798;9.798;2023-09-18T00:35:25;4.30;;;3.90;;
7215;SDS011;3649;48.798;9.798;2023-09-18T00:37:52;4.03;;;3.67;;
7215;SDS011;3649;48.798;9.798;2023-09-18T00:40:19;4.43;;;4.07;;
7215;SDS011;3649;48.798;9.798;2023-09-18T00:42:46;4.80;;;4.40;;
7215;SDS011;3649;48.798;9.798;2023-09-18T00:45:13;4.17;;;3.87;;
7215;SDS011;3649;48.798;9.798;2023-09-18T00:47:40;4.60;;;4.20;;
7215;SDS011;3649;48.798;9.798;2023-09-18T00:50:07;4.17;;;3.83;;
7215;SDS011;3649;48.798;9.798;2023-09-18T00:52:37;8.10;;;4.10;;
7215;SDS011;3649;48.798;9.798;2023-09-18T00:55:04;3.93;;;3.63;;
7215;SDS011;3649;48.798;9.798;2023-09-18T00:57:33;4.93;;;3.80;;
7215;SDS011;3649;48.798;9.798;2023-09-18T01:00:01;5.37;;;3.57;;
7215;SDS011;3649;48.798;9.798;2023-09-18T01:02:30;4.03;;;3.63;;
7215;SDS011;3649;48.798;9.798;2023-09-18T01:04:58;4.40;;;3.60;;
7215;SDS011;3649;48.798;9.798;2023-09-18T01:07:25;5.50;;;3.80;;
7215;SDS011;3649;48.798;9.798;2023-09-18T01:09:55;5.30;;;3.70;;
7215;SDS011;3649;48.798;9.798;2023-09-18T01:15:26;5.27;;;4.00;;
7215;SDS011;3649;48.798;9.798;2023-09-18T01:17:59;3.80;;;3.43;;
7215;SDS011;3649;48.798;9.798;2023-09-18T01:20:26;4.20;;;3.80;;
7215;SDS011;3649;48.798;9.798;2023-09-18T01:22:54;4.17;;;3.87;;
7215;SDS011;3649;48.798;9.798;2023-09-18T01:25:21;6.57;;;4.47;;
7215;SDS011;3649;48.798;9.798;2023-09-18T01:27:48;6.47;;;4.23;;
7215;SDS011;3649;48.798;9.798;2023-09-18T01:30:14;4.40;;;4.00;;
7215;SDS011;3649;48.798;9.798;2023-09-18T01:32:41;6.37;;;4.27;;
7215;SDS011;3649;48.798;9.798;2023-09-18T01:35:10;4.47;;;3.47;;
7215;SDS011;3649;48.798;9.798;2023-09-18T01:37:39;4.90;;;4.10;;
7215;SDS011;3649;48.798;9.798;2023-09-18T01:40:06;4.57;;;4.03;;
7215;SDS011;3649;48.798;9.798;2023-09-18T01:42:34;4.63;;;3.93;;
7215;SDS011;3649;48.798;9.798;2023-09-18T01:45:01;4.30;;;3.77;;
7215;SDS011;3649;48.798;9.798;2023-09-18T01:47:29;6.37;;;4.20;;
7215;SDS011;3649;48.798;9.798;2023-09-18T01:49:56;5.33;;;4.20;;
7215;SDS011;3649;48.798;9.798;2023-09-18T01:52:23;6.80;;;4.03;;
7215;SDS011;3649;48.798;9.798;2023-09-18T01:54:50;3.97;;;3.63;;
7215;SDS011;3649;48.798;9.798;2023-09-18T01:57:17;4.77;;;4.20;;
7215;SDS011;3649;48.798;9.798;2023-09-18T01:59:44;6.23;;;4.07;;
7215;SDS011;3649;48.798;9.798;2023-09-18T02:02:12;4.37;;;3.97;;
7215;SDS011;3649;48.798;9.798;2023-09-18T02:04:46;5.67;;;4.00;;
7215;SDS011;3649;48.798;9.798;2023-09-18T02:07:33;5.50;;;4.13;;
7215;SDS011;3649;48.798;9.798;2023-09-18T02:10:00;4.30;;;4.00;;
7215;SDS011;3649;48.798;9.798;2023-09-18T02:12:27;4.20;;;3.90;;
7215;SDS011;3649;48.798;9.798;2023-09-18T02:14:54;5.30;;;4.50;;
7215;SDS011;3649;48.798;9.798;2023-09-18T02:17:23;4.33;;;4.03;;
7215;SDS011;3649;48.798;9.798;2023-09-18T02:19:50;4.53;;;4.13;;
7215;SDS011;3649;48.798;9.798;2023-09-18T02:22:17;10.47;;;4.17;;
7215;SDS011;3649;48.798;9.798;2023-09-18T02:24:44;4.87;;;4.30;;
7215;SDS011;3649;48.798;9.798;2023-09-18T02:27:11;4.43;;;4.03;;
7215;SDS011;3649;48.798;9.798;2023-09-18T02:29:38;6.00;;;4.40;;
7215;SDS011;3649;48.798;9.798;2023-09-18T02:32:05;6.33;;;4.30;;
7215;SDS011;3649;48.798;9.798;2023-09-18T02:34:32;4.33;;;4.03;;
7215;SDS011;3649;48.798;9.798;2023-09-18T02:37:00;4.40;;;4.00;;
7215;SDS011;3649;48.798;9.798;2023-09-18T02:39:27;7.17;;;5.03;;
7215;SDS011;3649;48.798;9.798;2023-09-18T02:41:53;7.40;;;4.27;;
7215;SDS011;3649;48.798;9.798;2023-09-18T02:44:20;6.30;;;4.53;;
7215;SDS011;3649;48.798;9.798;2023-09-18T02:46:47;4.23;;;3.90;;
7215;SDS011;3649;48.798;9.798;2023-09-18T02:49:14;6.30;;;4.10;;
7215;SDS011;3649;48.798;9.798;2023-09-18T02:51:41;4.40;;;4.00;;
7215;SDS011;3649;48.798;9.798;2023-09-18T02:54:08;7.07;;;4.60;;
7215;SDS011;3649;48.798;9.798;2023-09-18T02:56:34;4.27;;;3.83;;
7215;SDS011;3649;48.798;9.798;2023-09-18T02:59:01;7.07;;;4.10;;
7215;SDS011;3649;48.798;9.798;2023-09-18T03:01:28;4.90;;;4.00;;
7215;SDS011;3649;48.798;9.798;2023-09-18T03:03:55;4.50;;;4.10;;
7215;SDS011;3649;48.798;9.798;2023-09-18T03:06:23;4.63;;;4.23;;
7215;SDS011;3649;48.798;9.798;2023-09-18T03:08:50;4.23;;;3.93;;
7215;SDS011;3649;48.798;9.798;2023-09-18T03:11:17;5.40;;;4.60;;
7215;SDS011;3649;48.798;9.798;2023-09-18T03:13:45;7.37;;;4.77;;
7215;SDS011;3649;48.798;9.798;2023-09-18T03:16:13;4.77;;;4.33;;
7215;SDS011;3649;48.798;9.798;2023-09-18T03:18:40;10.77;;;4.83;;
7215;SDS011;3649;48.798;9.798;2023-09-18T03:21:07;5.47;;;4.97;;
7215;SDS011;3649;48.798;9.798;2023-09-18T03:23:34;5.07;;;4.20;;
7215;SDS011;3649;48.798;9.798;2023-09-18T03:26:01;4.20;;;3.80;;
7215;SDS011;3649;48.798;9.798;2023-09-18T03:28:29;6.90;;;4.80;;
7215;SDS011;3649;48.798;9.798;2023-09-18T03:30:57;5.67;;;4.43;;
7215;SDS011;3649;48.798;9.798;2023-09-18T03:33:24;5.73;;;4.40;;
7215;SDS011;3649;48.798;9.798;2023-09-18T03:35:52;4.83;;;4.23;;
7215;SDS011;3649;48.798;9.798;2023-09-18T03:38:21;6.33;;;4.40;;
7215;SDS011;3649;48.798;9.798;2023-09-18T03:40:48;6.60;;;4.73;;
7215;SDS011;3649;48.798;9.798;2023-09-18T03:43:15;6.17;;;4.27;;
7215;SDS011;3649;48.798;9.798;2023-09-18T03:45:42;6.60;;;4.80;;
7215;SDS011;3649;48.798;9.798;2023-09-18T03:48:10;11.23;;;4.20;;
7215;SDS011;3649;48.798;9.798;2023-09-18T03:50:37;5.93;;;4.60;;
7215;SDS011;3649;48.798;9.798;2023-09-18T03:53:06;4.33;;;3.93;;
7215;SDS011;3649;48.798;9.798;2023-09-18T03:55:33;5.57;;;4.40;;
7215;SDS011;3649;48.798;9.798;2023-09-18T03:58:00;6.00;;;4.30;;
7215;SDS011;3649;48.798;9.798;2023-09-18T04:00:27;5.53;;;4.13;;
7215;SDS011;3649;48.798;9.798;2023-09-18T04:02:54;9.37;;;4.50;;
7215;SDS011;3649;48.798;9.798;2023-09-18T04:05:21;5.67;;;4.43;;
7215;SDS011;3649;48.798;9.798;2023-09-18T04:07:48;4.90;;;3.90;;
7215;SDS011;3649;48.798;9.798;2023-09-18T04:10:15;4.50;;;4.03;;
7215;SDS011;3649;48.798;9.798;2023-09-18T04:12:49;5.17;;;3.77;;
7215;SDS011;3649;48.798;9.798;2023-09-18T04:15:17;6.03;;;4.13;;
7215;SDS011;3649;48.798;9.798;2023-09-18T04:17:46;5.47;;;3.33;;
7215;SDS011;3649;48.798;9.798;2023-09-18T04:20:14;4.37;;;3.37;;
7215;SDS011;3649;48.798;9.798;2023-09-18T04:22:45;4.93;;;3.23;;
7215;SDS011;3649;48.798;9.798;2023-09-18T04:25:17;8.30;;;3.10;;
7215;SDS011;3649;48.798;9.798;2023-09-18T04:27:46;6.87;;;3.40;;
7215;SDS011;3649;48.798;9.798;2023-09-18T04:30:16;5.57;;;2.90;;
7215;SDS011;3649;48.798;9.798;2023-09-18T04:32:46;4.60;;;3.20;;
7215;SDS011;3649;48.798;9.798;2023-09-18T04:35:13;6.17;;;3.20;;
7215;SDS011;3649;48.798;9.798;2023-09-18T04:37:40;6.17;;;2.93;;
7215;SDS011;3649;48.798;9.798;2023-09-18T04:40:07;6.50;;;3.13;;
7215;SDS011;3649;48.798;9.798;2023-09-18T04:42:38;5.60;;;3.33;;
7215;SDS011;3649;48.798;9.798;2023-09-18T04:45:06;3.40;;;3.03;;
7215;SDS011;3649;48.798;9.798;2023-09-18T04:47:34;7.33;;;3.80;;
7215;SDS011;3649;48.798;9.798;2023-09-18T04:50:02;5.93;;;3.53;;
7215;SDS011;3649;48.798;9.798;2023-09-18T04:52:36;5.50;;;3.40;;
7215;SDS011;3649;48.798;9.798;2023-09-18T04:55:03;4.43;;;3.70;;
7215;SDS011;3649;48.798;9.798;2023-09-18T04:57:32;3.87;;;3.47;;
7215;SDS011;3649;48.798;9.798;2023-09-18T05:00:00;9.43;;;3.50;;
7215;SDS011;3649;48.798;9.798;2023-09-18T05:02:43;6.70;;;3.40;;
7215;SDS011;3649;48.798;9.798;2023-09-18T05:05:10;7.13;;;3.87;;
7215;SDS011;3649;48.798;9.798;2023-09-18T05:07:38;4.97;;;3.20;;
7215;SDS011;3649;48.798;9.798;2023-09-18T05:10:05;10.20;;;4.00;;
7215;SDS011;3649;48.798;9.798;2023-09-18T05:12:32;6.23;;;3.40;;
7215;SDS011;3649;48.798;9.798;2023-09-18T05:14:59;4.97;;;3.63;;
7215;SDS011;3649;48.798;9.798;2023-09-18T05:17:39;7.20;;;4.30;;
7215;SDS011;3649;48.798;9.798;2023-09-18T05:20:13;4.77;;;3.73;;
7215;SDS011;3649;48.798;9.798;2023-09-18T05:22:43;4.07;;;3.63;;
7215;SDS011;3649;48.798;9.798;2023-09-18T05:25:12;5.70;;;3.57;;
7215;SDS011;3649;48.798;9.798;2023-09-18T05:27:41;7.57;;;3.63;;
7215;SDS011;3649;48.798;9.798;2023-09-18T05:30:18;4.43;;;3.43;;
7215;SDS011;3649;48.798;9.798;2023-09-18T05:32:48;6.77;;;3.73;;
7215;SDS011;3649;48.798;9.798;2023-09-18T05:35:15;6.80;;;3.43;;
7215;SDS011;3649;48.798;9.798;2023-09-18T05:37:44;4.33;;;3.93;;
7215;SDS011;3649;48.798;9.798;2023-09-18T05:40:11;6.07;;;4.00;;
7215;SDS011;3649;48.798;9.798;2023-09-18T05:42:40;4.67;;;3.63;;
7215;SDS011;3649;48.798;9.798;2023-09-18T05:45:13;5.03;;;3.90;;
7215;SDS011;3649;48.798;9.798;2023-09-18T05:47:41;11.80;;;4.10;;
7215;SDS011;3649;48.798;9.798;2023-09-18T05:50:10;9.10;;;4.37;;
7215;SDS011;3649;48.798;9.798;2023-09-18T05:52:42;5.47;;;3.77;;
7215;SDS011;3649;48.798;9.798;2023-09-18T05:55:10;9.73;;;4.50;;
7215;SDS011;3649;48.798;9.798;2023-09-18T05:57:37;5.30;;;4.57;;
7215;SDS011;3649;48.798;9.798;2023-09-18T06:00:05;8.67;;;4.60;;
7215;SDS011;3649;48.798;9.798;2023-09-18T06:02:32;4.63;;;4.23;;
7215;SDS011;3649;48.798;9.798;2023-09-18T06:05:00;6.27;;;4.30;;
7215;SDS011;3649;48.798;9.798;2023-09-18T06:07:27;5.27;;;4.30;;
7215;SDS011;3649;48.798;9.798;2023-09-18T06:09:54;11.77;;;4.37;;
7215;SDS011;3649;48.798;9.798;2023-09-18T06:12:21;4.43;;;3.80;;
7215;SDS011;3649;48.798;9.798;2023-09-18T06:14:49;9.27;;;4.37;;
7215;SDS011;3649;48.798;9.798;2023-09-18T06:17:16;6.00;;;4.30;;
7215;SDS011;3649;48.798;9.798;2023-09-18T06:19:47;8.27;;;4.40;;
7215;SDS011;3649;48.798;9.798;2023-09-18T06:22:14;7.77;;;4.10;;
7215;SDS011;3649;48.798;9.798;2023-09-18T06:24:42;8.07;;;4.17;;
7215;SDS011;3649;48.798;9.798;2023-09-18T06:27:08;6.10;;;3.87;;
7215;SDS011;3649;48.798;9.798;2023-09-18T06:29:37;6.43;;;4.00;;
7215;SDS011;3649;48.798;9.798;2023-09-18T06:32:05;8.43;;;4.47;;
7215;SDS011;3649;48.798;9.798;2023-09-18T06:34:33;6.17;;;4.30;;
7215;SDS011;3649;48.798;9.798;2023-09-18T06:37:00;5.57;;;3.93;;
7215;SDS011;3649;48.798;9.798;2023-09-18T06:39:27;8.57;;;4.50;;
7215;SDS011;3649;48.798;9.798;2023-09-18T06:41:54;9.47;;;5.33;;
7215;SDS011;3649;48.798;9.798;2023-09-18T06:44:21;8.80;;;5.17;;
7215;SDS011;3649;48.798;9.798;2023-09-18T06:46:50;27.67;;;12.50;;
7215;SDS011;3649;48.798;9.798;2023-09-18T06:49:17;20.70;;;10.57;;
7215;SDS011;3649;48.798;9.798;2023-09-18T06:51:46;29.07;;;12.90;;
7215;SDS011;3649;48.798;9.798;2023-09-18T06:54:13;20.77;;;9.63;;
7215;SDS011;3649;48.798;9.798;2023-09-18T06:56:40;16.43;;;8.57;;
7215;SDS011;3649;48.798;9.798;2023-09-18T06:59:08;22.07;;;9.20;;
7215;SDS011;3649;48.798;9.798;2023-09-18T07:01:35;15.90;;;8.20;;
7215;SDS011;3649;48.798;9.798;2023-09-18T07:04:02;15.37;;;7.67;;
7215;SDS011;3649;48.798;9.798;2023-09-18T07:06:31;13.53;;;6.03;;
7215;SDS011;3649;48.798;9.798;2023-09-18T07:08:58;10.37;;;5.40;;
7215;SDS011;3649;48.798;9.798;2023-09-18T07:11:25;9.53;;;4.63;;
7215;SDS011;3649;48.798;9.798;2023-09-18T07:13:52;18.13;;;5.37;;
7215;SDS011;3649;48.798;9.798;2023-09-18T07:16:19;7.67;;;3.87;;
7215;SDS011;3649;48.798;9.798;2023-09-18T07:18:46;8.63;;;3.77;;
7215;SDS011;3649;48.798;9.798;2023-09-18T07:21:13;10.03;;;4.70;;
7215;SDS011;3649;48.798;9.798;2023-09-18T07:23:40;11.90;;;4.50;;
7215;SDS011;3649;48.798;9.798;2023-09-18T07:26:07;17.67;;;4.63;;
7215;SDS011;3649;48.798;9.798;2023-09-18T07:28:34;11.50;;;3.40;;
7215;SDS011;3649;48.798;9.798;2023-09-18T07:31:08;12.80;;;3.90;;
7215;SDS011;3649;48.798;9.798;2023-09-18T07:33:36;10.57;;;3.83;;
7215;SDS011;3649;48.798;9.798;2023-09-18T07:36:03;7.17;;;3.20;;
7215;SDS011;3649;48.798;9.798;2023-09-18T07:38:30;10.77;;;3.77;;
7215;SDS011;3649;48.798;9.798;2023-09-18T07:40:57;11.53;;;3.37;;
7215;SDS011;3649;48.798;9.798;2023-09-18T07:43:24;11.87;;;3.20;;
7215;SDS011;3649;48.798;9.798;2023-09-18T07:45:52;10.80;;;2.83;;
7215;SDS011;3649;48.798;9.798;2023-09-18T07:48:21;15.90;;;3.73;;
7215;SDS011;3649;48.798;9.798;2023-09-18T07:50:49;7.60;;;3.13;;
7215;SDS011;3649;48.798;9.798;2023-09-18T07:53:17;7.87;;;3.80;;
7215;SDS011;3649;48.798;9.798;2023-09-18T07:55:45;12.07;;;3.27;;
7215;SDS011;3649;48.798;9.798;2023-09-18T07:58:13;6.63;;;2.73;;
7215;SDS011;3649;48.798;9.798;2023-09-18T08:00:40;8.70;;;2.87;;
7215;SDS011;3649;48.798;9.798;2023-09-18T08:03:07;12.13;;;4.30;;
7215;SDS011;3649;48.798;9.798;2023-09-18T08:05:35;6.17;;;4.37;;
7215;SDS011;3649;48.798;9.798;2023-09-18T08:08:02;5.93;;;3.47;;
7215;SDS011;3649;48.798;9.798;2023-09-18T08:10:31;7.53;;;2.90;;
7215;SDS011;3649;48.798;9.798;2023-09-18T08:12:59;10.00;;;2.53;;
7215;SDS011;3649;48.798;9.798;2023-09-18T08:15:26;7.27;;;2.53;;
7215;SDS011;3649;48.798;9.798;2023-09-18T08:17:53;4.03;;;2.50;;
7215;SDS011;3649;48.798;9.798;2023-09-18T08:20:20;11.37;;;2.83;;
7215;SDS011;3649;48.798;9.798;2023-09-18T08:22:48;5.93;;;1.97;;
7215;SDS011;3649;48.798;9.798;2023-09-18T08:25:15;10.17;;;2.53;;
7215;SDS011;3649;48.798;9.798;2023-09-18T08:27:42;4.27;;;2.70;;
7215;SDS011;3649;48.798;9.798;2023-09-18T08:30:11;6.43;;;2.03;;
7215;SDS011;3649;48.798;9.798;2023-09-18T08:32:41;6.10;;;2.17;;
7215;SDS011;3649;48.798;9.798;2023-09-18T08:35:09;5.03;;;2.30;;
7215;SDS011;3649;48.798;9.798;2023-09-18T08:37:36;4.37;;;1.97;;
7215;SDS011;3649;48.798;9.798;2023-09-18T08:40:03;5.63;;;2.10;;
7215;SDS011;3649;48.798;9.798;2023-09-18T08:42:38;4.03;;;1.90;;
7215;SDS011;3649;48.798;9.798;2023-09-18T08:45:11;5.97;;;2.40;;
7215;SDS011;3649;48.798;9.798;2023-09-18T08:47:52;9.47;;;2.33;;
7215;SDS011;3649;48.798;9.798;2023-09-18T08:50:21;5.63;;;2.03;;
7215;SDS011;3649;48.798;9.798;2023-09-18T08:52:49;4.40;;;2.07;;
7215;SDS011;3649;48.798;9.798;2023-09-18T08:55:16;4.70;;;1.73;;
7215;SDS011;3649;48.798;9.798;2023-09-18T08:57:44;3.07;;;1.93;;
7215;SDS011;3649;48.798;9.798;2023-09-18T09:00:13;10.53;;;2.00;;
7215;SDS011;3649;48.798;9.798;2023-09-18T09:02:44;5.70;;;1.87;;
7215;SDS011;3649;48.798;9.798;2023-09-18T09:05:11;6.17;;;1.87;;
7215;SDS011;3649;48.798;9.798;2023-09-18T09:07:39;8.30;;;1.93;;
7215;SDS011;3649;48.798;9.798;2023-09-18T09:10:06;7.23;;;1.57;;
7215;SDS011;3649;48.798;9.798;2023-09-18T09:12:46;4.87;;;1.87;;
7215;SDS011;3649;48.798;9.798;2023-09-18T09:15:15;5.47;;;1.90;;
7215;SDS011;3649;48.798;9.798;2023-09-18T09:17:43;5.43;;;1.77;;
7215;SDS011;3649;48.798;9.798;2023-09-18T09:20:14;7.97;;;1.83;;
7215;SDS011;3649;48.798;9.798;2023-09-18T09:22:41;3.10;;;1.80;;
7215;SDS011;3649;48.798;9.798;2023-09-18T09:25:21;6.77;;;1.77;;
7215;SDS011;3649;48.798;9.798;2023-09-18T09:27:53;5.40;;;1.70;;
7215;SDS011;3649;48.798;9.798;2023-09-18T09:30:22;2.83;;;1.50;;
7215;SDS011;3649;48.798;9.798;2023-09-18T09:32:51;4.27;;;1.60;;
7215;SDS011;3649;48.798;9.798;2023-09-18T09:37:57;1.73;;;1.53;;
7215;SDS011;3649;48.798;9.798;2023-09-18T09:40:30;4.20;;;1.60;;
7215;SDS011;3649;48.798;9.798;2023-09-18T09:42:58;4.23;;;1.87;;
7215;SDS011;3649;48.798;9.798;2023-09-18T09:45:28;7.30;;;1.67;;
7215;SDS011;3649;48.798;9.798;2023-09-18T09:47:57;5.63;;;1.40;;
7215;SDS011;3649;48.798;9.798;2023-09-18T09:50:26;3.53;;;1.37;;
7215;SDS011;3649;48.798;9.798;2023-09-18T09:52:54;5.47;;;2.17;;
7215;SDS011;3649;48.798;9.798;2023-09-18T10:00:31;3.90;;;1.97;;
7215;SDS011;3649;48.798;9.798;2023-09-18T10:03:03;5.57;;;1.50;;
7215;SDS011;3649;48.798;9.798;2023-09-18T10:05:36;4.53;;;1.90;;
7215;SDS011;3649;48.798;9.798;2023-09-18T10:08:08;5.17;;;2.07;;
7215;SDS011;3649;48.798;9.798;2023-09-18T10:10:49;4.83;;;1.53;;
7215;SDS011;3649;48.798;9.798;2023-09-18T10:15:45;4.60;;;1.80;;
7215;SDS011;3649;48.798;9.798;2023-09-18T10:18:25;4.37;;;1.87;;
7215;SDS011;3649;48.798;9.798;2023-09-18T10:21:25;3.33;;;1.60;;
7215;SDS011;3649;48.798;9.798;2023-09-18T10:26:35;2.93;;;1.50;;
7215;SDS011;3649;48.798;9.798;2023-09-18T10:29:10;1.50;;;1.40;;
7215;SDS011;3649;48.798;9.798;2023-09-18T10:31:39;1.83;;;1.40;;
7215;SDS011;3649;48.798;9.798;2023-09-18T10:34:07;2.43;;;1.40;;
7215;SDS011;3649;48.798;9.798;2023-09-18T10:36:35;3.67;;;1.20;;
7215;SDS011;3649;48.798;9.798;2023-09-18T10:39:05;3.57;;;1.53;;
7215;SDS011;3649;48.798;9.798;2023-09-18T10:41:36;1.30;;;1.20;;
7215;SDS011;3649;48.798;9.798;2023-09-18T10:44:04;4.57;;;1.40;;
7215;SDS011;3649;48.798;9.798;2023-09-18T10:46:32;4.27;;;1.20;;
7215;SDS011;3649;48.798;9.798;2023-09-18T10:49:00;4.77;;;1.40;;
7215;SDS011;3649;48.798;9.798;2023-09-18T10:51:29;2.33;;;1.37;;
7215;SDS011;3649;48.798;9.798;2023-09-18T10:53:59;1.43;;;1.00;;
7215;SDS011;3649;48.798;9.798;2023-09-18T10:56:27;3.03;;;1.80;;
7215;SDS011;3649;48.798;9.798;2023-09-18T10:59:00;6.30;;;2.10;;
7215;SDS011;3649;48.798;9.798;2023-09-18T11:01:29;2.90;;;2.17;;
7215;SDS011;3649;48.798;9.798;2023-09-18T11:03:57;3.07;;;2.70;;
7215;SDS011;3649;48.798;9.798;2023-09-18T11:06:28;4.40;;;2.33;;
7215;SDS011;3649;48.798;9.798;2023-09-18T11:09:02;5.30;;;2.00;;
7215;SDS011;3649;48.798;9.798;2023-09-18T11:11:32;3.17;;;1.80;;
7215;SDS011;3649;48.798;9.798;2023-09-18T11:14:02;4.30;;;1.70;;
7215;SDS011;3649;48.798;9.798;2023-09-18T11:16:35;2.87;;;1.77;;
7215;SDS011;3649;48.798;9.798;2023-09-18T11:19:08;2.63;;;1.77;;
7215;SDS011;3649;48.798;9.798;2023-09-18T11:21:37;4.77;;;1.87;;
7215;SDS011;3649;48.798;9.798;2023-09-18T11:24:08;3.33;;;1.87;;
7215;SDS011;3649;48.798;9.798;2023-09-18T11:26:48;4.63;;;1.90;;
7215;SDS011;3649;48.798;9.798;2023-09-18T11:29:16;3.67;;;1.90;;
7215;SDS011;3649;48.798;9.798;2023-09-18T11:31:49;5.77;;;2.00;;
7215;SDS011;3649;48.798;9.798;2023-09-18T11:36:48;2.43;;;2.00;;
7215;SDS011;3649;48.798;9.798;2023-09-18T11:39:35;2.80;;;1.93;;
7215;SDS011;3649;48.798;9.798;2023-09-18T11:42:17;2.87;;;2.60;;
7215;SDS011;3649;48.798;9.798;2023-09-18T11:44:46;2.90;;;1.60;;
7215;SDS011;3649;48.798;9.798;2023-09-18T11:47:17;2.93;;;1.70;;
7215;SDS011;3649;48.798;9.798;2023-09-18T11:49:51;2.30;;;1.30;;
7215;SDS011;3649;48.798;9.798;2023-09-18T11:52:22;3.47;;;1.37;;
7215;SDS011;3649;48.798;9.798;2023-09-18T11:54:51;1.60;;;1.43;;
7215;SDS011;3649;48.798;9.798;2023-09-18T11:57:21;4.17;;;1.80;;
7215;SDS011;3649;48.798;9.798;2023-09-18T11:59:47;4.50;;;1.60;;
7215;SDS011;3649;48.798;9.798;2023-09-18T12:04:55;2.23;;;1.13;;
7215;SDS011;3649;48.798;9.798;2023-09-18T12:07:23;3.43;;;1.20;;
7215;SDS011;3649;48.798;9.798;2023-09-18T12:09:51;5.47;;;1.53;;
7215;SDS011;3649;48.798;9.798;2023-09-18T12:12:20;2.00;;;1.37;;
7215;SDS011;3649;48.798;9.798;2023-09-18T12:14:47;1.60;;;1.20;;
7215;SDS011;3649;48.798;9.798;2023-09-18T12:17:15;1.90;;;1.13;;
7215;SDS011;3649;48.798;9.798;2023-09-18T12:19:55;1.17;;;1.00;;
7215;SDS011;3649;48.798;9.798;2023-09-18T12:24:52;1.23;;;1.13;;
7215;SDS011;3649;48.798;9.798;2023-09-18T12:27:19;1.97;;;1.33;;
7215;SDS011;3649;48.798;9.798;2023-09-18T12:29:47;4.20;;;1.03;;
7215;SDS011;3649;48.798;9.798;2023-09-18T12:32:14;1.43;;;1.20;;
7215;SDS011;3649;48.798;9.798;2023-09-18T12:34:41;2.57;;;1.20;;
7215;SDS011;3649;48.798;9.798;2023-09-18T12:37:10;1.80;;;1.50;;
7215;SDS011;3649;48.798;9.798;2023-09-18T12:39:39;2.80;;;1.30;;
7215;SDS011;3649;48.798;9.798;2023-09-18T12:42:07;2.60;;;1.50;;
7215;SDS011;3649;48.798;9.798;2023-09-18T12:44:34;1.97;;;1.63;;
7215;SDS011;3649;48.798;9.798;2023-09-18T12:47:01;1.27;;;1.17;;
7215;SDS011;3649;48.798;9.798;2023-09-18T12:49:29;2.03;;;1.10;;
7215;SDS011;3649;48.798;9.798;2023-09-18T12:51:58;2.43;;;1.30;;
7215;SDS011;3649;48.798;9.798;2023-09-18T12:54:41;2.13;;;1.40;;
7215;SDS011;3649;48.798;9.798;2023-09-18T12:57:11;1.37;;;1.23;;
7215;SDS011;3649;48.798;9.798;2023-09-18T12:59:42;2.00;;;1.20;;
7215;SDS011;3649;48.798;9.798;2023-09-18T13:02:09;1.50;;;1.40;;
7215;SDS011;3649;48.798;9.798;2023-09-18T13:04:40;2.13;;;1.20;;
7215;SDS011;3649;48.798;9.798;2023-09-18T13:07:14;1.30;;;1.10;;
7215;SDS011;3649;48.798;9.798;2023-09-18T13:09:41;1.63;;;1.37;;
7215;SDS011;3649;48.798;9.798;2023-09-18T13:12:09;1.23;;;1.10;;
7215;SDS011;3649;48.798;9.798;2023-09-18T13:17:53;4.40;;;1.33;;
7215;SDS011;3649;48.798;9.798;2023-09-18T13:20:28;2.10;;;1.80;;
7215;SDS011;3649;48.798;9.798;2023-09-18T13:22:56;1.23;;;1.07;;
7215;SDS011;3649;48.798;9.798;2023-09-18T13:25:30;4.13;;;1.23;;
7215;SDS011;3649;48.798;9.798;2023-09-18T13:28:02;5.17;;;1.20;;
7215;SDS011;3649;48.798;9.798;2023-09-18T13:30:31;1.20;;;1.13;;
7215;SDS011;3649;48.798;9.798;2023-09-18T13:33:02;2.63;;;0.90;;
7215;SDS011;3649;48.798;9.798;2023-09-18T13:35:30;2.77;;;1.83;;
7215;SDS011;3649;48.798;9.798;2023-09-18T13:37:58;1.60;;;1.37;;
7215;SDS011;3649;48.798;9.798;2023-09-18T13:40:28;1.27;;;1.27;;
7215;SDS011;3649;48.798;9.798;2023-09-18T13:43:03;1.40;;;1.30;;
7215;SDS011;3649;48.798;9.798;2023-09-18T13:45:32;1.63;;;1.20;;
7215;SDS011;3649;48.798;9.798;2023-09-18T13:48:02;1.67;;;1.17;;
7215;SDS011;3649;48.798;9.798;2023-09-18T13:50:30;1.37;;;1.27;;
7215;SDS011;3649;48.798;9.798;2023-09-18T13:53:01;1.47;;;1.33;;
7215;SDS011;3649;48.798;9.798;2023-09-18T13:55:30;2.10;;;1.40;;
7215;SDS011;3649;48.798;9.798;2023-09-18T13:57:58;1.37;;;1.23;;
7215;SDS011;3649;48.798;9.798;2023-09-18T14:00:25;1.30;;;1.20;;
7215;SDS011;3649;48.798;9.798;2023-09-18T14:02:53;3.27;;;1.30;;
7215;SDS011;3649;48.798;9.798;2023-09-18T14:05:20;3.10;;;1.40;;
7215;SDS011;3649;48.798;9.798;2023-09-18T14:07:48;2.00;;;1.30;;
7215;SDS011;3649;48.798;9.798;2023-09-18T14:10:15;3.70;;;1.50;;
7215;SDS011;3649;48.798;9.798;2023-09-18T14:12:45;1.30;;;1.20;;
7215;SDS011;3649;48.798;9.798;2023-09-18T14:15:12;2.40;;;1.07;;
7215;SDS011;3649;48.798;9.798;2023-09-18T14:17:39;3.10;;;0.90;;
7215;SDS011;3649;48.798;9.798;2023-09-18T14:20:06;1.00;;;1.00;;
7215;SDS011;3649;48.798;9.798;2023-09-18T14:22:34;1.33;;;1.23;;
7215;SDS011;3649;48.798;9.798;2023-09-18T14:25:02;3.27;;;1.37;;
7215;SDS011;3649;48.798;9.798;2023-09-18T14:27:33;2.00;;;1.40;;
7215;SDS011;3649;48.798;9.798;2023-09-18T14:30:02;4.57;;;1.27;;
7215;SDS011;3649;48.798;9.798;2023-09-18T14:32:34;1.63;;;1.20;;
7215;SDS011;3649;48.798;9.798;2023-09-18T14:35:03;3.37;;;1.20;;
7215;SDS011;3649;48.798;9.798;2023-09-18T14:37:35;1.40;;;1.30;;
7215;SDS011;3649;48.798;9.798;2023-09-18T14:40:03;1.17;;;1.10;;
7215;SDS011;3649;48.798;9.798;2023-09-18T14:42:30;2.97;;;1.27;;
7215;SDS011;3649;48.798;9.798;2023-09-18T14:44:58;1.30;;;1.20;;
7215;SDS011;3649;48.798;9.798;2023-09-18T14:47:25;3.20;;;1.10;;
7215;SDS011;3649;48.798;9.798;2023-09-18T14:49:52;1.30;;;1.20;;
7215;SDS011;3649;48.798;9.798;2023-09-18T14:52:19;1.47;;;1.00;;
7215;SDS011;3649;48.798;9.798;2023-09-18T14:54:49;3.20;;;1.27;;
7215;SDS011;3649;48.798;9.798;2023-09-18T14:57:16;3.00;;;0.90;;
7215;SDS011;3649;48.798;9.798;2023-09-18T14:59:43;1.17;;;1.00;;
7215;SDS011;3649;48.798;9.798;2023-09-18T15:02:14;2.07;;;1.17;;
7215;SDS011;3649;48.798;9.798;2023-09-18T15:04:42;6.30;;;1.47;;
7215;SDS011;3649;48.798;9.798;2023-09-18T15:07:09;1.70;;;1.50;;
7215;SDS011;3649;48.798;9.798;2023-09-18T15:09:37;2.90;;;1.10;;
7215;SDS011;3649;48.798;9.798;2023-09-18T15:12:05;2.83;;;1.23;;
7215;SDS011;3649;48.798;9.798;2023-09-18T15:14:35;2.23;;;1.10;;
7215;SDS011;3649;48.798;9.798;2023-09-18T15:17:03;2.43;;;1.30;;
7215;SDS011;3649;48.798;9.798;2023-09-18T15:19:30;1.13;;;1.10;;
7215;SDS011;3649;48.798;9.798;2023-09-18T15:21:58;3.43;;;1.27;;
7215;SDS011;3649;48.798;9.798;2023-09-18T15:24:25;1.83;;;1.53;;
7215;SDS011;3649;48.798;9.798;2023-09-18T15:26:52;3.20;;;1.33;;
7215;SDS011;3649;48.798;9.798;2023-09-18T15:29:19;3.23;;;1.20;;
7215;SDS011;3649;48.798;9.798;2023-09-18T15:31:48;3.37;;;1.20;;
7215;SDS011;3649;48.798;9.798;2023-09-18T15:34:15;2.20;;;1.20;;
7215;SDS011;3649;48.798;9.798;2023-09-18T15:36:43;3.27;;;1.20;;
7215;SDS011;3649;48.798;9.798;2023-09-18T15:39:10;2.70;;;1.50;;
7215;SDS011;3649;48.798;9.798;2023-09-18T15:41:37;1.47;;;1.40;;
7215;SDS011;3649;48.798;9.798;2023-09-18T15:44:05;1.70;;;1.47;;
7215;SDS011;3649;48.798;9.798;2023-09-18T15:46:33;1.33;;;1.20;;
7215;SDS011;3649;48.798;9.798;2023-09-18T15:49:01;1.20;;;1.10;;
7215;SDS011;3649;48.798;9.798;2023-09-18T15:51:28;2.70;;;1.60;;